createdAt,value
2022-08-07T00:02:46.678Z,99632.91
2022-08-07T00:05:53.950Z,99634.08
2022-08-07T00:09:07.849Z,99630.23
2022-08-07T00:12:23.503Z,99622.41
2022-08-07T00:15:38.015Z,99618.17
2022-08-07T00:18:53.095Z,99615.85
2022-08-07T00:22:02.117Z,99615.20
2022-08-07T00:25:16.723Z,99614.70
2022-08-07T00:28:23.946Z,99619.73
2022-08-07T00:31:42.084Z,99624.98
2022-08-07T00:34:49.402Z,99624.27
2022-08-07T00:37:57.303Z,99630.96
2022-08-07T00:41:04.279Z,99630.89
2022-08-07T00:44:16.434Z,99634.05
2022-08-07T00:48:08.317Z,99638.61
2022-08-07T00:50:51.546Z,99638.66
2022-08-07T00:53:58.070Z,99638.70
2022-08-07T00:57:06.094Z,99636.05
2022-08-07T01:00:15.831Z,99631.94
2022-08-07T01:03:54.616Z,99633.93
2022-08-07T01:06:49.249Z,99633.12
2022-08-07T01:10:06.897Z,99635.63
2022-08-07T01:13:17.157Z,99632.61
2022-08-07T01:16:30.349Z,99635.79
2022-08-07T01:19:38.403Z,99632.58
2022-08-07T01:23:00.515Z,99632.23
2022-08-07T01:26:13.368Z,99636.80
2022-08-07T01:29:23.849Z,99639.77
2022-08-07T01:32:34.810Z,99635.36
2022-08-07T01:35:53.368Z,99637.36
2022-08-07T01:39:01.162Z,99630.84
2022-08-07T01:42:39.361Z,99631.35
2022-08-07T01:45:36.847Z,99624.60
2022-08-07T01:48:47.586Z,99626.92
2022-08-07T01:52:01.600Z,99626.95
2022-08-07T01:55:22.353Z,99630.48
2022-08-07T01:58:33.938Z,99631.52
2022-08-07T02:02:01.638Z,99629.83
2022-08-07T02:05:16.195Z,99627.80
2022-08-07T02:08:42.485Z,99617.73
2022-08-07T02:12:03.482Z,99613.98
2022-08-07T02:15:13.796Z,99620.16
2022-08-07T02:18:22.627Z,99619.48
2022-08-07T02:21:55.511Z,99614.00
2022-08-07T02:25:07.139Z,99616.44
2022-08-07T02:28:25.594Z,99616.36
2022-08-07T02:31:34.928Z,99617.80
2022-08-07T02:34:48.740Z,99622.80
2022-08-07T02:37:59.583Z,99624.19
2022-08-07T02:41:07.999Z,99618.31
2022-08-07T02:44:18.015Z,99618.95
2022-08-07T02:47:25.691Z,99620.55
2022-08-07T02:50:34.308Z,99621.23
2022-08-07T02:53:46.113Z,99623.31
2022-08-07T02:56:53.235Z,99622.87
2022-08-07T03:00:04.995Z,99621.30
2022-08-07T03:03:22.575Z,99624.52
2022-08-07T03:06:33.029Z,99624.77
2022-08-07T03:09:45.450Z,99624.49
2022-08-07T03:12:53.006Z,99628.98
2022-08-07T03:15:59.383Z,99630.92
2022-08-07T03:19:09.053Z,99633.45
2022-08-07T03:22:18.817Z,99632.91
2022-08-07T03:25:26.069Z,99635.96
2022-08-07T03:28:42.067Z,99635.40
2022-08-07T03:31:52.675Z,99638.11
2022-08-07T03:35:17.867Z,99639.33
2022-08-07T03:38:29.692Z,99638.11
2022-08-07T03:41:41.979Z,99638.95
2022-08-07T03:44:58.034Z,99640.14
2022-08-07T03:48:10.071Z,99642.08
2022-08-07T03:51:20.760Z,99642.77
2022-08-07T03:54:36.043Z,99639.89
2022-08-07T03:58:33.677Z,99644.88
2022-08-07T04:01:22.465Z,99641.73
2022-08-07T04:04:28.823Z,99645.91
2022-08-07T04:07:42.761Z,99648.57
2022-08-07T04:10:54.649Z,99643.33
2022-08-07T04:14:37.661Z,99645.27
2022-08-07T04:18:58.180Z,99650.40
2022-08-07T04:21:13.715Z,99651.88
2022-08-07T04:24:34.116Z,99651.02
2022-08-07T04:27:59.276Z,99646.80
2022-08-07T04:31:07.878Z,99647.64
2022-08-07T04:34:27.586Z,99651.75
2022-08-07T04:37:40.499Z,99649.72
2022-08-07T04:41:07.015Z,99659.57
2022-08-07T04:44:18.451Z,99660.42
2022-08-07T04:47:58.796Z,99663.04
2022-08-07T04:51:09.200Z,99664.92
2022-08-07T04:54:30.048Z,99664.33
2022-08-07T04:58:16.148Z,99669.53
2022-08-07T05:01:19.281Z,99673.86
2022-08-07T05:04:32.833Z,99677.91
2022-08-07T05:07:48.675Z,99679.39
2022-08-07T05:11:06.958Z,99680.33
2022-08-07T05:14:55.792Z,99685.16
2022-08-07T05:17:52.501Z,99690.91
2022-08-07T05:21:04.828Z,99691.89
2022-08-07T05:24:17.236Z,99691.89
2022-08-07T05:28:02.703Z,99688.91
2022-08-07T05:30:52.780Z,99693.73
2022-08-07T05:34:01.119Z,99694.25
2022-08-07T05:37:11.762Z,99692.85
2022-08-07T05:40:20.613Z,99696.12
2022-08-07T05:43:49.596Z,99689.17
2022-08-07T05:46:54.156Z,99686.00
2022-08-07T05:50:01.459Z,99686.88
2022-08-07T05:53:07.866Z,99689.14
2022-08-07T05:56:35.545Z,99686.55
2022-08-07T05:59:57.493Z,99692.64
2022-08-07T06:03:07.050Z,99697.92
2022-08-07T06:06:18.931Z,99700.94
2022-08-07T06:10:04.369Z,99702.23
2022-08-07T06:12:52.739Z,99698.41
2022-08-07T06:16:02.757Z,99699.63
2022-08-07T06:19:18.082Z,99706.92
2022-08-07T06:22:40.119Z,99705.00
2022-08-07T06:25:54.647Z,99701.23
2022-08-07T06:29:04.306Z,99699.92
2022-08-07T06:32:13.361Z,99696.15
2022-08-07T06:35:19.611Z,99696.67
2022-08-07T06:38:28.790Z,99696.46
2022-08-07T06:42:02.477Z,99699.60
2022-08-07T06:45:12.270Z,99700.96
2022-08-07T07:00:17.780Z,99696.77
2022-08-07T07:03:39.811Z,99699.27
2022-08-07T07:07:00.510Z,99701.00
2022-08-07T07:10:08.725Z,99696.34
2022-08-07T07:13:41.449Z,99694.38
2022-08-07T07:16:53.486Z,99697.00
2022-08-07T07:20:03.972Z,99697.26
2022-08-07T07:24:08.821Z,99693.86
2022-08-07T07:26:39.735Z,99693.54
2022-08-07T07:30:07.410Z,99696.29
2022-08-07T07:33:19.990Z,99697.16
2022-08-07T07:36:32.696Z,99699.48
2022-08-07T07:39:52.092Z,99699.04
2022-08-07T07:43:15.135Z,99694.95
2022-08-07T07:46:40.358Z,99691.08
2022-08-07T07:50:34.145Z,99694.89
2022-08-07T07:53:25.647Z,99696.61
2022-08-07T07:56:33.184Z,99699.64
2022-08-07T07:59:52.813Z,99700.93
2022-08-07T08:03:08.051Z,99695.63
2022-08-07T08:06:16.102Z,99703.30
2022-08-07T08:09:24.620Z,99704.44
2022-08-07T08:12:52.105Z,99703.45
2022-08-07T08:16:01.947Z,99700.40
2022-08-07T08:20:15.757Z,99702.69
2022-08-07T08:22:58.618Z,99701.52
2022-08-07T08:26:25.209Z,99704.03
2022-08-07T08:29:37.792Z,99698.79
2022-08-07T08:33:04.039Z,99708.05
2022-08-07T08:36:13.651Z,99703.34
2022-08-07T08:39:22.785Z,99706.84
2022-08-07T08:42:33.593Z,99709.23
2022-08-07T08:45:59.003Z,99711.55
2022-08-07T08:49:13.734Z,99709.49
2022-08-07T08:52:23.908Z,99715.08
2022-08-07T08:55:54.649Z,99715.20
2022-08-07T08:59:13.590Z,99713.27
2022-08-07T09:02:35.220Z,99714.84
2022-08-07T09:05:49.741Z,99715.40
2022-08-07T09:09:09.671Z,99709.69
2022-08-07T09:12:53.098Z,99713.58
2022-08-07T09:16:24.458Z,99712.74
2022-08-07T09:19:55.431Z,99713.58
2022-08-07T09:24:33.733Z,99711.52
2022-08-07T09:26:51.066Z,99710.12
2022-08-07T09:30:08.325Z,99703.48
2022-08-07T09:33:41.271Z,99694.61
2022-08-07T09:37:10.941Z,99689.46
2022-08-07T09:40:25.565Z,99689.48
2022-08-07T09:44:05.644Z,99688.92
2022-08-07T09:47:52.481Z,99687.79
2022-08-07T09:51:05.437Z,99691.64
2022-08-07T09:54:36.346Z,99680.20
2022-08-07T09:58:32.014Z,99680.67
2022-08-07T10:01:59.142Z,99670.33
2022-08-07T10:05:59.461Z,99663.36
2022-08-07T10:09:34.202Z,99667.55
2022-08-07T10:13:03.602Z,99664.13
2022-08-07T10:16:24.352Z,99657.26
2022-08-07T10:19:54.222Z,99652.11
2022-08-07T10:23:13.558Z,99649.94
2022-08-07T10:26:38.326Z,99643.72
2022-08-07T10:30:07.182Z,99642.70
2022-08-07T10:34:05.006Z,99642.40
2022-08-07T10:37:12.688Z,99644.39
2022-08-07T10:40:30.314Z,99644.52
2022-08-07T10:43:43.372Z,99640.55
2022-08-07T10:47:01.265Z,99636.63
2022-08-07T10:50:12.658Z,99630.94
2022-08-07T10:53:41.943Z,99625.31
2022-08-07T10:57:04.581Z,99625.42
2022-08-07T11:00:36.633Z,99622.19
2022-08-07T11:03:53.003Z,99620.10
2022-08-07T11:07:24.694Z,99620.77
2022-08-07T11:10:52.277Z,99621.41
2022-08-07T11:14:45.310Z,99620.48
2022-08-07T11:17:45.811Z,99615.65
2022-08-07T11:21:04.303Z,99618.54
2022-08-07T11:24:19.703Z,99611.80
2022-08-07T11:28:01.624Z,99607.73
2022-08-07T11:31:04.112Z,99602.33
2022-08-07T11:34:23.563Z,99601.73
2022-08-07T11:37:58.146Z,99598.88
2022-08-07T11:41:30.993Z,99594.86
2022-08-07T11:44:58.013Z,99597.50
2022-08-07T11:48:32.237Z,99590.17
2022-08-07T11:52:04.775Z,99591.34
2022-08-07T11:56:11.915Z,99586.44
2022-08-07T11:59:02.445Z,99583.33
2022-08-07T12:02:30.263Z,99577.40
2022-08-07T12:05:50.524Z,99576.16
2022-08-07T12:09:16.246Z,99579.12
2022-08-07T12:12:36.898Z,99574.30
2022-08-07T12:16:06.027Z,99576.81
2022-08-07T12:19:21.348Z,99572.48
2022-08-07T12:22:47.262Z,99571.75
2022-08-07T12:26:29.028Z,99562.45
2022-08-07T12:29:40.389Z,99558.02
2022-08-07T12:32:53.841Z,99559.16
2022-08-07T12:36:02.335Z,99555.53
2022-08-07T12:39:43.605Z,99558.89
2022-08-07T12:42:38.007Z,99557.45
2022-08-07T12:46:15.781Z,99552.63
2022-08-07T12:49:51.674Z,99554.63
2022-08-07T12:53:18.558Z,99553.39
2022-08-07T12:56:32.403Z,99553.10
2022-08-07T12:59:54.354Z,99548.87
2022-08-07T13:03:27.019Z,99547.52
2022-08-07T13:08:13.539Z,99550.19
2022-08-07T13:10:59.481Z,99550.59
2022-08-07T13:14:17.760Z,99544.30
2022-08-07T13:17:34.753Z,99538.48
2022-08-07T13:20:51.932Z,99540.47
2022-08-07T13:24:07.626Z,99535.16
2022-08-07T13:27:22.039Z,99533.43
2022-08-07T13:30:39.905Z,99533.52
2022-08-07T13:34:34.652Z,99528.93
2022-08-07T13:37:27.133Z,99528.86
2022-08-07T13:40:42.846Z,99528.48
2022-08-07T13:43:52.716Z,99524.23
2022-08-07T13:47:04.792Z,99519.52
2022-08-07T13:50:36.633Z,99514.70
2022-08-07T13:54:00.238Z,99511.09
2022-08-07T13:57:14.524Z,99507.27
2022-08-07T14:00:54.087Z,99495.70
2022-08-07T14:04:07.587Z,99494.39
2022-08-07T14:07:15.710Z,99490.77
2022-08-07T14:10:28.329Z,99478.47
2022-08-07T14:13:36.633Z,99477.42
2022-08-07T14:16:53.005Z,99476.84
2022-08-07T14:20:39.922Z,99474.55
2022-08-07T14:24:00.056Z,99475.48
2022-08-07T14:27:16.263Z,99468.29
2022-08-07T14:30:34.155Z,99469.65
2022-08-07T14:33:44.784Z,99466.52
2022-08-07T14:36:55.891Z,99465.59
2022-08-07T14:40:18.044Z,99464.01
2022-08-07T14:43:58.470Z,99461.77
2022-08-07T14:50:28.148Z,99454.02
2022-08-07T14:54:03.529Z,99446.86
2022-08-07T14:57:08.122Z,99454.15
2022-08-07T15:03:52.464Z,99445.11
2022-08-07T15:07:00.921Z,99441.39
2022-08-07T15:10:11.223Z,99436.80
2022-08-07T15:16:55.768Z,99439.00
2022-08-07T15:20:32.871Z,99435.49
2022-08-07T15:27:15.395Z,99433.45
2022-08-07T15:30:21.910Z,99428.99
2022-08-07T15:33:33.847Z,99429.47
2022-08-07T15:37:03.964Z,99432.34
2022-08-07T15:40:33.770Z,99427.05
2022-08-07T15:43:55.702Z,99426.09
2022-08-07T15:47:16.890Z,99420.44
2022-08-07T15:53:58.340Z,99413.78
2022-08-07T15:57:10.597Z,99415.32
2022-08-07T16:00:38.027Z,99406.61
2022-08-07T16:03:57.399Z,99401.81
2022-08-07T16:08:31.520Z,99404.19
2022-08-07T16:10:37.593Z,99403.67
2022-08-07T16:14:00.184Z,99403.52
2022-08-07T16:18:01.550Z,99399.86
2022-08-07T16:22:01.226Z,99397.79
2022-08-07T16:24:35.560Z,99401.61
2022-08-07T16:27:57.086Z,99402.92
2022-08-07T16:31:50.336Z,99399.58
2022-08-07T16:34:48.825Z,99397.12
2022-08-07T16:38:15.990Z,99397.75
2022-08-07T16:41:48.580Z,99394.53
2022-08-07T16:46:34.669Z,99398.16
2022-08-07T16:50:28.615Z,99399.66
2022-08-07T16:54:01.469Z,99396.70
2022-08-07T16:58:01.076Z,99393.77
2022-08-07T17:01:15.930Z,99396.98
2022-08-07T17:04:36.950Z,99396.98
2022-08-07T17:07:58.150Z,99397.05
2022-08-07T17:11:14.420Z,99396.63
2022-08-07T17:14:31.955Z,99397.43
2022-08-07T17:17:46.441Z,99395.84
2022-08-07T17:20:54.902Z,99395.63
2022-08-07T17:24:23.484Z,99393.19
2022-08-07T17:27:50.808Z,99392.73
2022-08-07T17:31:16.353Z,99390.54
2022-08-07T17:34:34.558Z,99396.55
2022-08-07T17:38:06.037Z,99399.20
2022-08-07T17:42:04.580Z,99396.40
2022-08-07T17:44:54.572Z,99393.52
2022-08-07T17:48:10.280Z,99393.16
2022-08-07T17:51:23.948Z,99395.54
2022-08-07T17:54:55.310Z,99397.14
2022-08-07T17:58:05.216Z,99394.41
2022-08-07T18:01:21.850Z,99402.33
2022-08-07T18:04:36.177Z,99408.34
2022-08-07T18:07:47.483Z,99406.57
2022-08-07T18:12:06.635Z,99412.35
2022-08-07T18:14:45.020Z,99410.17
2022-08-07T18:18:45.765Z,99419.84
2022-08-07T18:21:53.498Z,99424.27
2022-08-07T18:25:19.067Z,99425.91
2022-08-07T18:28:58.732Z,99431.11
2022-08-07T18:32:17.984Z,99429.70
2022-08-07T18:35:51.812Z,99433.52
2022-08-07T18:40:06.667Z,99435.56
2022-08-07T18:42:46.217Z,99435.58
2022-08-07T18:46:24.406Z,99439.08
2022-08-07T18:50:31.521Z,99441.65
2022-08-07T18:53:39.779Z,99446.35
2022-08-07T18:57:29.421Z,99451.00
2022-08-07T19:00:33.221Z,99449.16
2022-08-07T19:03:52.135Z,99449.66
2022-08-07T19:07:03.434Z,99450.50
2022-08-07T19:10:21.482Z,99455.90
2022-08-07T19:13:37.714Z,99457.61
2022-08-07T19:17:07.831Z,99458.87
2022-08-07T19:20:29.954Z,99459.13
2022-08-07T19:23:58.849Z,99462.83
2022-08-07T19:28:57.639Z,99463.24
2022-08-07T19:31:06.375Z,99461.79
2022-08-07T19:34:04.775Z,99458.73
2022-08-07T19:37:17.299Z,99460.98
2022-08-07T19:40:31.436Z,99464.20
2022-08-07T19:43:49.536Z,99466.39
2022-08-07T19:47:10.854Z,99461.19
2022-08-07T19:50:44.510Z,99464.04
2022-08-07T19:54:34.783Z,99464.83
2022-08-07T19:58:04.779Z,99467.04
2022-08-07T20:00:55.274Z,99474.77
2022-08-07T20:04:03.530Z,99477.79
2022-08-07T20:07:13.966Z,99479.27
2022-08-07T20:10:55.237Z,99478.13
2022-08-07T20:14:03.262Z,99474.09
2022-08-07T20:17:14.911Z,99473.14
2022-08-07T20:20:26.730Z,99474.42
2022-08-07T20:23:42.833Z,99476.64
2022-08-07T20:26:56.552Z,99475.87
2022-08-07T20:30:07.539Z,99482.52
2022-08-07T20:33:24.336Z,99479.69
2022-08-07T20:36:51.741Z,99478.98
2022-08-07T20:40:03.208Z,99479.28
2022-08-07T20:43:19.676Z,99487.05
2022-08-07T20:46:32.311Z,99490.73
2022-08-07T20:49:59.717Z,99492.78
2022-08-07T20:53:11.586Z,99497.11
2022-08-07T20:56:25.820Z,99501.19
2022-08-07T21:00:06.465Z,99504.09
2022-08-07T21:03:03.280Z,99504.88
2022-08-07T21:06:25.866Z,99503.02
2022-08-07T21:09:53.206Z,99503.05
2022-08-07T21:13:06.158Z,99502.20
2022-08-07T21:16:14.559Z,99508.30
2022-08-07T21:19:32.552Z,99508.27
2022-08-07T21:22:55.844Z,99501.51
2022-08-07T21:26:18.251Z,99501.70
2022-08-07T21:29:33.476Z,99504.83
2022-08-07T21:32:54.188Z,99508.31
2022-08-07T21:36:11.959Z,99511.52
2022-08-07T21:39:46.302Z,99511.39
2022-08-07T21:43:00.974Z,99513.07
2022-08-07T21:46:31.317Z,99513.62
2022-08-07T21:50:01.076Z,99509.77
2022-08-07T21:53:14.124Z,99505.44
2022-08-07T21:56:39.612Z,99499.18
2022-08-07T22:00:04.383Z,99501.64
2022-08-07T22:03:18.740Z,99503.27
2022-08-07T22:06:31.484Z,99503.40
2022-08-07T22:09:54.006Z,99504.63
2022-08-07T22:13:03.078Z,99500.41
2022-08-07T22:16:44.258Z,99500.42
2022-08-07T22:19:57.285Z,99498.08
2022-08-07T22:23:13.754Z,99497.07
2022-08-07T22:26:25.893Z,99501.94
2022-08-07T22:29:47.991Z,99501.14
2022-08-07T22:33:07.516Z,99501.21
2022-08-07T22:36:26.093Z,99504.50
2022-08-07T22:39:52.940Z,99503.77
2022-08-07T22:43:11.145Z,99503.63
2022-08-07T22:47:05.937Z,99505.75
2022-08-07T22:50:48.947Z,99504.31
2022-08-07T22:54:09.451Z,99500.85
2022-08-07T22:57:37.383Z,99501.72
2022-08-07T23:01:06.578Z,99501.63
2022-08-07T23:04:36.250Z,99508.08
2022-08-07T23:08:23.970Z,99499.82
2022-08-07T23:11:49.971Z,99506.45
2022-08-07T23:15:10.192Z,99506.04
2022-08-07T23:18:32.044Z,99509.94
2022-08-07T23:21:46.831Z,99506.96
2022-08-07T23:25:10.881Z,99504.94
2022-08-07T23:28:30.867Z,99500.44
2022-08-07T23:34:20.271Z,99496.55
2022-08-07T23:35:23.432Z,99497.65
2022-08-07T23:38:43.241Z,99492.50
2022-08-07T23:42:21.391Z,99493.56
2022-08-07T23:46:03.525Z,99491.96
2022-08-07T23:49:50.187Z,99493.10
2022-08-07T23:53:08.503Z,99494.16
2022-08-07T23:56:35.169Z,99491.33
